LKPD

Pardubice Airport

Pardubice, Czech Republic
METAR LKPD 181600Z 05004KT 010V070 CAVOK 03/M06 Q1022
Observed Flight Rules
Nov-18 @ 16:00 UTC (36 minutes ago) Visual Flight Rules
Wind Visibility Clouds
50° at 4 knots 10,000+ meters
  • Clear skies
Temperatures Readings
Current 3°C / 37°F
Dewpoint -6°C / 21°F
Humidity 52%
Altimeter 30.18" Hg
Pressure 1022 hPa
Elevation 226
METAR LKPD 181600Z 05004KT 010V070 CAVOK 03/M06 Q1022
Observed Flight Rules
Nov-18 @ 16:00 UTC
(36 minutes ago)
VFR
Wind Visibility
50° at 4 knots 10,000+ meters
Clouds
  • Clear skies
Temperature Dewpoint
3°C / 37°F -6°C / 21°F
Humidity Altimeter Pressure
52% 30.18" Hg 1022 hPa